createdAt,value
2022-10-30T00:01:37.544Z,100.00
2022-10-30T00:04:04.487Z,100.00
2022-10-30T00:06:31.104Z,100.00
2022-10-30T00:08:57.716Z,100.00
2022-10-30T00:11:24.391Z,100.00
2022-10-30T00:13:51.035Z,100.00
2022-10-30T00:16:18.233Z,100.00
2022-10-30T00:18:44.913Z,100.00
2022-10-30T00:21:14.288Z,100.00
2022-10-30T00:23:56.058Z,100.00
2022-10-30T00:26:23.935Z,100.00
2022-10-30T00:28:53.000Z,100.00
2022-10-30T00:31:20.083Z,100.00
2022-10-30T00:33:51.535Z,100.00
2022-10-30T00:36:18.729Z,100.00
2022-10-30T00:38:45.496Z,100.00
2022-10-30T00:41:18.163Z,100.00
2022-10-30T00:43:45.251Z,100.00
2022-10-30T00:46:25.696Z,100.00
2022-10-30T00:48:58.081Z,100.00
2022-10-30T00:51:28.021Z,100.00
2022-10-30T00:53:57.919Z,100.00
2022-10-30T00:56:24.797Z,100.00
2022-10-30T00:58:57.331Z,100.00
2022-10-30T01:01:26.894Z,100.00
2022-10-30T01:03:57.593Z,100.00
2022-10-30T01:06:25.126Z,100.00
2022-10-30T01:08:57.029Z,100.00
2022-10-30T01:11:26.685Z,100.00
2022-10-30T01:13:55.336Z,100.00
2022-10-30T01:16:46.179Z,100.00
2022-10-30T01:19:14.836Z,100.00
2022-10-30T01:21:57.144Z,100.00
2022-10-30T01:24:34.035Z,100.00
2022-10-30T01:27:23.816Z,100.00
2022-10-30T01:29:56.313Z,100.00
2022-10-30T01:32:54.836Z,100.00
2022-10-30T01:35:28.474Z,100.00
2022-10-30T01:38:03.566Z,100.00
2022-10-30T01:40:30.293Z,100.00
2022-10-30T01:42:58.528Z,100.00
2022-10-30T01:45:46.178Z,100.00
2022-10-30T01:48:27.383Z,100.00
2022-10-30T01:51:03.026Z,100.00
2022-10-30T01:53:45.111Z,100.00
2022-10-30T01:56:18.827Z,100.00
2022-10-30T01:58:55.031Z,100.00
2022-10-30T02:01:23.843Z,100.00
2022-10-30T02:03:51.590Z,100.00
2022-10-30T02:06:18.369Z,100.00
2022-10-30T02:08:45.007Z,100.00
2022-10-30T02:11:12.321Z,100.00
2022-10-30T02:13:39.137Z,100.00
2022-10-30T02:16:06.554Z,100.00
2022-10-30T02:18:33.427Z,100.00
2022-10-30T02:21:00.298Z,100.00
2022-10-30T02:23:26.967Z,100.00
2022-10-30T02:25:53.663Z,100.00
2022-10-30T02:28:20.312Z,100.00
2022-10-30T02:30:46.962Z,100.00
2022-10-30T02:33:13.699Z,100.00
2022-10-30T02:35:40.470Z,100.00
2022-10-30T02:38:07.132Z,100.00
2022-10-30T02:40:33.787Z,100.00
2022-10-30T02:43:00.442Z,100.00
2022-10-30T02:45:27.087Z,100.00
2022-10-30T02:47:53.786Z,100.00
2022-10-30T02:50:20.438Z,100.00
2022-10-30T02:52:47.071Z,100.00
2022-10-30T02:55:13.699Z,100.00
2022-10-30T02:57:40.298Z,100.00
2022-10-30T03:00:07.580Z,100.00
2022-10-30T03:02:34.242Z,100.00
2022-10-30T03:05:04.569Z,100.00
2022-10-30T03:07:31.247Z,100.00
2022-10-30T03:09:57.875Z,100.00
2022-10-30T03:12:24.611Z,100.00
2022-10-30T03:14:54.544Z,100.00
2022-10-30T03:17:21.181Z,100.00
2022-10-30T03:19:47.821Z,100.00
2022-10-30T03:22:14.438Z,100.00
2022-10-30T03:24:41.091Z,100.00
2022-10-30T03:27:07.731Z,100.00
2022-10-30T03:29:34.358Z,100.00
2022-10-30T03:32:00.996Z,100.00
2022-10-30T03:34:27.853Z,100.00
2022-10-30T03:36:54.953Z,100.00
2022-10-30T03:39:21.583Z,100.00
2022-10-30T03:41:48.325Z,100.00
2022-10-30T03:44:14.996Z,100.00
2022-10-30T03:46:41.642Z,100.00
2022-10-30T03:49:08.281Z,100.00
2022-10-30T03:51:34.930Z,100.00
2022-10-30T03:54:01.549Z,100.00
2022-10-30T03:56:28.231Z,100.00
2022-10-30T03:58:54.890Z,100.00
2022-10-30T04:01:21.647Z,100.00
2022-10-30T04:03:48.408Z,100.00
2022-10-30T04:06:15.035Z,100.00
2022-10-30T04:08:41.701Z,100.00
2022-10-30T04:11:11.181Z,100.00
2022-10-30T04:13:37.911Z,100.00
2022-10-30T04:16:06.562Z,100.00
2022-10-30T04:18:33.194Z,100.00
2022-10-30T04:21:00.868Z,100.00
2022-10-30T04:23:27.743Z,100.00
2022-10-30T04:25:54.532Z,100.00
2022-10-30T04:28:21.672Z,100.00
2022-10-30T04:30:48.422Z,100.00
2022-10-30T04:33:15.531Z,100.00
2022-10-30T04:35:43.071Z,100.00
2022-10-30T04:38:12.666Z,100.00
2022-10-30T04:40:41.457Z,100.00
2022-10-30T04:43:09.221Z,100.00
2022-10-30T04:45:37.052Z,100.00
2022-10-30T04:48:12.574Z,100.00
2022-10-30T04:50:39.498Z,100.00
2022-10-30T04:53:10.430Z,100.00
2022-10-30T04:55:37.079Z,100.00
2022-10-30T04:58:05.194Z,100.00
2022-10-30T05:00:32.217Z,100.00
2022-10-30T05:03:00.964Z,100.00
2022-10-30T05:05:29.994Z,100.00
2022-10-30T05:07:57.258Z,100.00
2022-10-30T05:10:24.301Z,100.00
2022-10-30T05:12:53.502Z,100.00
2022-10-30T05:15:20.373Z,100.00
2022-10-30T05:17:51.731Z,100.00
2022-10-30T05:20:19.096Z,100.00
2022-10-30T05:22:46.153Z,100.00
2022-10-30T05:25:12.870Z,100.00
2022-10-30T05:27:39.531Z,100.00
2022-10-30T05:30:06.731Z,100.00
2022-10-30T05:32:33.757Z,100.00
2022-10-30T05:35:00.392Z,100.00
2022-10-30T05:37:27.275Z,100.00
2022-10-30T05:39:53.877Z,100.00
2022-10-30T05:42:20.617Z,100.00
2022-10-30T05:45:00.232Z,100.00
2022-10-30T05:47:27.933Z,100.00
2022-10-30T05:49:54.601Z,100.00
2022-10-30T05:52:21.317Z,100.00
2022-10-30T05:54:49.695Z,100.00
2022-10-30T05:57:16.368Z,100.00
2022-10-30T05:59:44.007Z,100.00
2022-10-30T06:02:10.683Z,100.00
2022-10-30T06:04:37.469Z,100.00
2022-10-30T06:07:04.210Z,100.00
2022-10-30T06:09:30.791Z,100.00
2022-10-30T06:11:58.592Z,100.00
2022-10-30T06:14:25.243Z,100.00
2022-10-30T06:16:51.918Z,100.00
2022-10-30T06:19:19.209Z,100.00
2022-10-30T06:21:46.806Z,100.00
2022-10-30T06:24:14.353Z,100.00
2022-10-30T06:26:42.272Z,100.00
2022-10-30T06:29:08.969Z,100.00
2022-10-30T06:31:35.585Z,100.00
2022-10-30T06:34:02.253Z,100.00
2022-10-30T06:36:29.013Z,100.00
2022-10-30T06:38:55.709Z,100.00
2022-10-30T06:41:29.080Z,100.00
2022-10-30T06:43:56.897Z,100.00
2022-10-30T06:46:26.931Z,100.00
2022-10-30T06:48:57.391Z,100.00
2022-10-30T06:51:24.052Z,100.00
2022-10-30T06:53:50.710Z,100.00
2022-10-30T06:56:17.287Z,100.00
2022-10-30T06:58:43.985Z,100.00
2022-10-30T07:01:10.698Z,100.00
2022-10-30T07:03:37.429Z,100.00
2022-10-30T07:06:07.678Z,100.00
2022-10-30T07:08:34.325Z,100.00
2022-10-30T07:11:00.965Z,100.00
2022-10-30T07:13:27.556Z,100.00
2022-10-30T07:15:57.466Z,100.00
2022-10-30T07:18:24.088Z,100.00
2022-10-30T07:20:55.443Z,100.00
2022-10-30T07:23:22.318Z,100.00
2022-10-30T07:25:49.026Z,100.00
2022-10-30T07:28:15.705Z,100.00
2022-10-30T07:30:42.380Z,100.00
2022-10-30T07:33:10.182Z,100.00
2022-10-30T07:35:36.995Z,100.00
2022-10-30T07:38:06.730Z,100.00
2022-10-30T07:40:34.540Z,100.00
2022-10-30T07:43:03.390Z,100.00
2022-10-30T07:45:31.075Z,100.00
2022-10-30T07:47:58.228Z,100.00
2022-10-30T07:50:25.127Z,100.00
2022-10-30T07:52:51.845Z,100.00
2022-10-30T07:55:18.733Z,100.00
2022-10-30T07:57:45.382Z,100.00
2022-10-30T08:00:14.005Z,100.00
2022-10-30T08:02:41.098Z,100.00
2022-10-30T08:05:09.191Z,100.00
2022-10-30T08:07:37.927Z,100.00
2022-10-30T08:10:05.904Z,100.00
2022-10-30T08:12:34.302Z,100.00
2022-10-30T08:15:01.172Z,100.00
2022-10-30T08:17:28.397Z,100.00
2022-10-30T08:19:55.519Z,100.00
2022-10-30T08:22:22.185Z,100.00
2022-10-30T08:24:48.901Z,100.00
2022-10-30T08:27:15.639Z,100.00
2022-10-30T08:29:42.339Z,100.00
2022-10-30T08:32:09.970Z,100.00
2022-10-30T08:34:36.631Z,100.00
2022-10-30T08:37:03.331Z,100.00
2022-10-30T08:39:30.007Z,100.00
2022-10-30T08:41:59.821Z,100.00
2022-10-30T08:44:26.988Z,100.00
2022-10-30T08:46:53.648Z,100.00
2022-10-30T08:49:20.395Z,100.00
2022-10-30T08:51:47.179Z,100.00
2022-10-30T08:54:13.792Z,100.00
2022-10-30T08:56:40.418Z,100.00
2022-10-30T08:59:07.103Z,100.00
2022-10-30T09:01:33.854Z,100.00
2022-10-30T09:04:00.552Z,100.00
2022-10-30T09:06:27.198Z,100.00
2022-10-30T09:08:53.855Z,100.00
2022-10-30T09:11:20.505Z,100.00
2022-10-30T09:13:49.336Z,100.00
2022-10-30T09:16:15.982Z,100.00
2022-10-30T09:18:42.698Z,100.00
2022-10-30T09:21:09.381Z,100.00
2022-10-30T09:23:36.055Z,100.00
2022-10-30T09:26:02.793Z,100.00
2022-10-30T09:28:29.464Z,100.00
2022-10-30T09:31:01.541Z,100.00
2022-10-30T09:33:28.391Z,100.00
2022-10-30T09:35:55.006Z,100.00
2022-10-30T09:38:21.664Z,100.00
2022-10-30T09:41:05.312Z,100.00
2022-10-30T09:43:52.095Z,100.00
2022-10-30T09:46:20.114Z,100.00
2022-10-30T09:49:11.945Z,100.00
2022-10-30T09:52:13.705Z,100.00
2022-10-30T09:54:56.806Z,100.00
2022-10-30T09:57:32.580Z,100.00
2022-10-30T10:00:03.847Z,100.00
2022-10-30T10:02:35.632Z,100.00
2022-10-30T10:05:14.516Z,100.00
2022-10-30T10:07:46.827Z,100.00
2022-10-30T10:10:22.410Z,100.00
2022-10-30T10:12:55.743Z,100.00
2022-10-30T10:15:48.779Z,100.00
2022-10-30T10:18:25.720Z,100.00
2022-10-30T10:20:57.649Z,100.00
2022-10-30T10:23:35.778Z,100.00
2022-10-30T10:26:14.839Z,100.00
2022-10-30T10:28:59.695Z,100.00
2022-10-30T10:31:43.355Z,100.00
2022-10-30T10:34:20.993Z,100.00
2022-10-30T10:37:06.032Z,100.00
2022-10-30T10:40:03.160Z,100.00
2022-10-30T10:42:46.206Z,100.00
2022-10-30T10:45:12.840Z,100.00
2022-10-30T10:48:10.092Z,100.00
2022-10-30T10:50:47.137Z,100.00
2022-10-30T10:53:44.355Z,100.00
2022-10-30T10:56:11.295Z,100.00
2022-10-30T10:58:51.695Z,100.00
2022-10-30T11:01:23.678Z,98.36
2022-10-30T11:03:57.835Z,100.00
2022-10-30T11:06:27.907Z,100.00
2022-10-30T11:09:12.793Z,100.00
2022-10-30T11:11:39.456Z,100.00
2022-10-30T11:14:15.711Z,98.83
2022-10-30T11:17:00.721Z,95.81
2022-10-30T11:19:30.330Z,96.17
2022-10-30T11:21:58.330Z,96.81
2022-10-30T11:24:31.206Z,94.52
2022-10-30T11:27:15.503Z,93.56
2022-10-30T11:29:49.431Z,92.39
2022-10-30T11:32:22.639Z,92.62
2022-10-30T11:35:13.498Z,92.93
2022-10-30T11:37:43.045Z,92.30
2022-10-30T11:40:20.398Z,93.17
2022-10-30T11:42:59.617Z,92.09
2022-10-30T11:45:39.926Z,89.74
2022-10-30T11:48:19.906Z,89.24
2022-10-30T11:50:49.306Z,85.79
2022-10-30T11:53:23.016Z,84.93
2022-10-30T11:55:50.847Z,83.31
2022-10-30T11:58:35.766Z,81.84
2022-10-30T12:01:12.236Z,80.76
2022-10-30T12:03:40.925Z,83.47
2022-10-30T12:06:09.355Z,83.91
2022-10-30T12:08:36.080Z,83.54
2022-10-30T12:11:05.492Z,82.30
2022-10-30T12:13:39.184Z,81.38
2022-10-30T12:16:14.682Z,81.49
2022-10-30T12:18:42.932Z,81.93
2022-10-30T12:21:10.263Z,83.30
2022-10-30T12:23:38.140Z,82.34
2022-10-30T12:26:11.032Z,83.07
2022-10-30T12:28:39.268Z,83.46
2022-10-30T12:31:19.518Z,80.91
2022-10-30T12:33:58.566Z,82.42
2022-10-30T12:36:31.032Z,80.22
2022-10-30T12:39:03.679Z,82.17
2022-10-30T12:41:51.230Z,79.74
2022-10-30T12:44:26.995Z,80.06
2022-10-30T12:47:01.306Z,79.61
2022-10-30T12:49:34.139Z,78.80
2022-10-30T12:52:07.546Z,80.88
2022-10-30T12:54:42.736Z,80.53
2022-10-30T12:57:22.673Z,79.36
2022-10-30T13:00:10.006Z,79.56
2022-10-30T13:03:07.104Z,80.86
2022-10-30T13:05:40.288Z,79.35
2022-10-30T13:08:22.339Z,80.31
2022-10-30T13:10:54.869Z,81.03
2022-10-30T13:13:29.142Z,78.97
2022-10-30T13:15:58.672Z,80.75
2022-10-30T13:18:27.240Z,78.88
2022-10-30T13:21:08.495Z,78.15
2022-10-30T13:23:46.410Z,78.67
2022-10-30T13:26:28.896Z,78.85
2022-10-30T13:29:12.020Z,80.83
2022-10-30T13:32:09.137Z,79.91
2022-10-30T13:34:51.204Z,78.68
2022-10-30T13:37:27.520Z,78.02
2022-10-30T13:40:24.748Z,78.68
2022-10-30T13:43:26.661Z,78.91
2022-10-30T13:46:17.935Z,78.39
2022-10-30T13:49:10.161Z,79.07
2022-10-30T13:51:53.157Z,77.80
2022-10-30T13:54:38.789Z,81.77
2022-10-30T13:57:23.821Z,82.23
2022-10-30T14:00:11.504Z,83.77
2022-10-30T14:02:53.545Z,82.95
2022-10-30T14:05:33.784Z,83.53
2022-10-30T14:08:15.670Z,83.06
2022-10-30T14:10:42.268Z,80.75
2022-10-30T14:13:26.963Z,80.90
2022-10-30T14:15:55.395Z,81.05
2022-10-30T14:18:25.712Z,82.54
2022-10-30T14:20:54.412Z,80.65
2022-10-30T14:23:22.845Z,79.79
2022-10-30T14:26:05.902Z,79.34
2022-10-30T14:28:38.838Z,82.53
2022-10-30T14:31:10.297Z,81.13
2022-10-30T14:33:46.313Z,82.08
2022-10-30T14:36:28.351Z,83.33
2022-10-30T14:39:00.392Z,83.40
2022-10-30T14:41:44.915Z,83.93
2022-10-30T14:44:22.844Z,83.56
2022-10-30T14:47:00.818Z,83.75
2022-10-30T14:49:46.559Z,83.00
2022-10-30T14:52:28.453Z,82.01
2022-10-30T14:55:00.049Z,82.04
2022-10-30T14:57:48.247Z,82.48
2022-10-30T15:00:35.121Z,83.25
2022-10-30T15:03:15.540Z,84.88
2022-10-30T15:06:17.193Z,86.29
2022-10-30T15:08:57.982Z,87.64
2022-10-30T15:11:39.916Z,89.01
2022-10-30T15:14:20.972Z,89.53
2022-10-30T15:16:51.472Z,91.37
2022-10-30T15:19:24.118Z,91.86
2022-10-30T15:21:54.019Z,91.48
2022-10-30T15:24:29.569Z,92.25
2022-10-30T15:27:01.038Z,92.03
2022-10-30T15:29:30.543Z,90.87
2022-10-30T15:32:00.981Z,91.39
2022-10-30T15:34:29.600Z,94.02
2022-10-30T15:36:56.623Z,94.01
2022-10-30T15:39:23.722Z,95.03
2022-10-30T15:41:54.087Z,95.56
2022-10-30T15:44:26.897Z,96.86
2022-10-30T15:46:55.677Z,96.70
2022-10-30T15:49:30.150Z,97.26
2022-10-30T15:51:57.193Z,96.53
2022-10-30T15:54:25.910Z,97.12
2022-10-30T15:57:31.739Z,97.62
2022-10-30T15:59:51.609Z,99.78
2022-10-30T16:02:22.332Z,100.00
2022-10-30T16:04:50.056Z,100.00
2022-10-30T16:07:22.267Z,100.00
2022-10-30T16:10:01.405Z,100.00
2022-10-30T16:12:30.847Z,100.00
2022-10-30T16:15:01.416Z,100.00
2022-10-30T16:17:28.492Z,100.00
2022-10-30T16:20:01.014Z,100.00
2022-10-30T16:22:34.442Z,100.00
2022-10-30T16:25:01.647Z,100.00
2022-10-30T16:27:28.321Z,100.00
2022-10-30T16:29:59.515Z,100.00
2022-10-30T16:32:33.429Z,100.00
2022-10-30T16:35:03.154Z,100.00
2022-10-30T16:37:36.621Z,100.00
2022-10-30T16:40:12.283Z,100.00
2022-10-30T16:42:39.264Z,100.00
2022-10-30T16:45:45.719Z,100.00
2022-10-30T16:48:19.526Z,100.00
2022-10-30T16:50:47.195Z,100.00
2022-10-30T16:53:29.756Z,100.00
2022-10-30T16:55:58.173Z,100.00
2022-10-30T16:58:28.263Z,100.00
2022-10-30T17:01:02.708Z,100.00
2022-10-30T17:03:39.579Z,100.00
2022-10-30T17:06:31.342Z,100.00
2022-10-30T17:09:01.375Z,100.00
2022-10-30T17:11:46.319Z,100.00
2022-10-30T17:14:19.758Z,100.00
2022-10-30T17:16:57.566Z,100.00
2022-10-30T17:19:39.326Z,100.00
2022-10-30T17:22:12.811Z,100.00
2022-10-30T17:24:39.606Z,100.00
2022-10-30T17:27:23.266Z,100.00
2022-10-30T17:29:49.855Z,100.00
2022-10-30T17:32:21.953Z,100.00
2022-10-30T17:35:00.099Z,100.00
2022-10-30T17:37:27.248Z,100.00
2022-10-30T17:39:53.906Z,100.00
2022-10-30T17:42:20.719Z,100.00
2022-10-30T17:44:47.806Z,100.00
2022-10-30T17:47:17.578Z,100.00
2022-10-30T17:49:45.081Z,100.00
2022-10-30T17:52:14.677Z,100.00
2022-10-30T17:54:42.100Z,100.00
2022-10-30T17:57:11.751Z,100.00
2022-10-30T17:59:39.281Z,100.00
2022-10-30T18:02:16.045Z,100.00
2022-10-30T18:04:43.606Z,100.00
2022-10-30T18:07:13.074Z,100.00
2022-10-30T18:09:40.211Z,100.00
2022-10-30T18:12:12.307Z,100.00
2022-10-30T18:14:38.920Z,100.00
2022-10-30T18:17:05.874Z,100.00
2022-10-30T18:19:32.534Z,100.00
2022-10-30T18:21:59.233Z,100.00
2022-10-30T18:24:25.868Z,100.00
2022-10-30T18:26:53.967Z,100.00
2022-10-30T18:29:21.094Z,100.00
2022-10-30T18:31:47.856Z,100.00
2022-10-30T18:34:18.267Z,100.00
2022-10-30T18:36:45.032Z,100.00
2022-10-30T18:39:13.010Z,100.00
2022-10-30T18:41:42.980Z,100.00
2022-10-30T18:44:18.286Z,100.00
2022-10-30T18:46:45.811Z,100.00
2022-10-30T18:49:12.910Z,100.00
2022-10-30T18:51:40.247Z,100.00
2022-10-30T18:54:14.064Z,100.00
2022-10-30T18:56:40.906Z,100.00
2022-10-30T18:59:07.505Z,100.00
2022-10-30T19:01:35.154Z,100.00
2022-10-30T19:04:03.761Z,100.00
2022-10-30T19:06:32.859Z,100.00
2022-10-30T19:09:02.820Z,100.00
2022-10-30T19:11:31.784Z,100.00
2022-10-30T19:13:59.199Z,100.00
2022-10-30T19:16:25.874Z,100.00
2022-10-30T19:18:53.038Z,100.00
2022-10-30T19:21:26.091Z,100.00
2022-10-30T19:23:54.509Z,100.00
2022-10-30T19:26:21.181Z,100.00
2022-10-30T19:28:47.821Z,100.00
2022-10-30T19:31:17.372Z,100.00
2022-10-30T19:33:44.728Z,100.00
2022-10-30T19:36:36.181Z,100.00
2022-10-30T19:39:09.118Z,100.00
2022-10-30T19:41:36.912Z,100.00
2022-10-30T19:44:04.277Z,100.00
2022-10-30T19:46:31.035Z,100.00
2022-10-30T19:48:58.945Z,100.00
2022-10-30T19:51:27.942Z,100.00
2022-10-30T19:53:54.642Z,100.00
2022-10-30T19:56:21.527Z,100.00
2022-10-30T19:58:48.587Z,100.00
2022-10-30T20:01:16.048Z,100.00
2022-10-30T20:03:42.930Z,100.00
2022-10-30T20:06:12.441Z,100.00
2022-10-30T20:08:39.269Z,100.00
2022-10-30T20:11:05.952Z,100.00
2022-10-30T20:13:33.557Z,100.00
2022-10-30T20:16:05.354Z,100.00
2022-10-30T20:18:35.085Z,100.00
2022-10-30T20:21:08.263Z,100.00
2022-10-30T20:23:35.783Z,100.00
2022-10-30T20:26:06.569Z,100.00
2022-10-30T20:28:36.511Z,100.00
2022-10-30T20:31:05.358Z,100.00
2022-10-30T20:33:32.125Z,100.00
2022-10-30T20:35:58.791Z,100.00
2022-10-30T20:38:29.366Z,100.00
2022-10-30T20:40:57.976Z,100.00
2022-10-30T20:43:29.402Z,100.00
2022-10-30T20:45:58.291Z,100.00
2022-10-30T20:48:26.219Z,100.00
2022-10-30T20:50:54.607Z,100.00
2022-10-30T20:53:21.234Z,100.00
2022-10-30T20:55:48.145Z,100.00
2022-10-30T20:58:14.802Z,100.00
2022-10-30T21:00:41.665Z,100.00
2022-10-30T21:03:11.255Z,100.00
2022-10-30T21:05:43.839Z,100.00
2022-10-30T21:08:11.059Z,100.00
2022-10-30T21:10:38.885Z,100.00
2022-10-30T21:13:08.791Z,100.00
2022-10-30T21:15:39.477Z,100.00
2022-10-30T21:18:06.690Z,100.00
2022-10-30T21:20:33.429Z,100.00
2022-10-30T21:23:00.616Z,100.00
2022-10-30T21:25:27.362Z,100.00
2022-10-30T21:27:56.560Z,100.00
2022-10-30T21:30:23.377Z,100.00
2022-10-30T21:32:50.496Z,100.00
2022-10-30T21:35:17.537Z,100.00
2022-10-30T21:37:44.145Z,100.00
2022-10-30T21:40:11.401Z,100.00
2022-10-30T21:42:38.060Z,100.00
2022-10-30T21:45:06.040Z,100.00
2022-10-30T21:47:32.649Z,100.00
2022-10-30T21:49:59.296Z,100.00
2022-10-30T21:52:25.916Z,100.00
2022-10-30T21:54:52.560Z,100.00
2022-10-30T21:57:19.413Z,100.00
2022-10-30T21:59:46.063Z,100.00
2022-10-30T22:02:15.173Z,100.00
2022-10-30T22:04:42.014Z,100.00
2022-10-30T22:07:08.868Z,100.00
2022-10-30T22:09:35.903Z,100.00
2022-10-30T22:12:02.555Z,100.00
2022-10-30T22:14:29.463Z,100.00
2022-10-30T22:16:56.290Z,100.00
2022-10-30T22:19:22.991Z,100.00
2022-10-30T22:21:49.630Z,100.00
2022-10-30T22:24:17.348Z,100.00
2022-10-30T22:26:46.571Z,100.00
2022-10-30T22:29:13.357Z,100.00
2022-10-30T22:31:40.066Z,100.00
2022-10-30T22:34:06.672Z,100.00
2022-10-30T22:36:33.618Z,100.00
2022-10-30T22:39:02.735Z,100.00
2022-10-30T22:41:34.453Z,100.00
2022-10-30T22:44:08.028Z,100.00
2022-10-30T22:46:36.289Z,100.00
2022-10-30T22:49:03.293Z,100.00
2022-10-30T22:51:33.393Z,100.00
2022-10-30T22:54:02.081Z,100.00
2022-10-30T22:56:32.184Z,100.00
2022-10-30T22:59:02.389Z,100.00
2022-10-30T23:01:31.626Z,100.00
2022-10-30T23:04:00.656Z,100.00
2022-10-30T23:06:29.037Z,100.00
2022-10-30T23:08:58.257Z,100.00
2022-10-30T23:11:29.438Z,100.00
2022-10-30T23:13:56.801Z,100.00
2022-10-30T23:16:25.370Z,100.00
2022-10-30T23:18:54.605Z,100.00
2022-10-30T23:21:23.332Z,100.00
2022-10-30T23:23:53.238Z,100.00
2022-10-30T23:26:24.294Z,100.00
2022-10-30T23:28:53.318Z,100.00
2022-10-30T23:31:22.912Z,100.00
2022-10-30T23:33:51.072Z,100.00
2022-10-30T23:36:18.441Z,100.00
2022-10-30T23:38:45.583Z,100.00
2022-10-30T23:41:12.207Z,100.00
2022-10-30T23:43:38.870Z,100.00
2022-10-30T23:46:05.703Z,100.00
2022-10-30T23:48:32.437Z,100.00
2022-10-30T23:50:59.092Z,100.00
2022-10-30T23:53:25.733Z,100.00
2022-10-30T23:55:54.050Z,100.00
2022-10-30T23:58:21.327Z,100.00
